sensor_id;sensor_type;location;lat;lon;timestamp;temperature;humidity
22813;DHT22;11573;51.334;3.244;2023-02-19T00:01:36;10.10;99.90
22813;DHT22;11573;51.334;3.244;2023-02-19T00:04:15;10.10;99.90
22813;DHT22;11573;51.334;3.244;2023-02-19T00:06:44;10.20;99.90
22813;DHT22;11573;51.334;3.244;2023-02-19T00:09:13;10.20;99.90
22813;DHT22;11573;51.334;3.244;2023-02-19T00:11:41;10.20;99.90
22813;DHT22;11573;51.334;3.244;2023-02-19T00:14:10;10.20;99.90
22813;DHT22;11573;51.334;3.244;2023-02-19T00:16:40;10.30;99.90
22813;DHT22;11573;51.334;3.244;2023-02-19T00:19:14;10.30;99.90
22813;DHT22;11573;51.334;3.244;2023-02-19T00:21:41;10.30;99.90
22813;DHT22;11573;51.334;3.244;2023-02-19T00:24:10;10.30;99.90
22813;DHT22;11573;51.334;3.244;2023-02-19T00:26:39;10.30;99.90
22813;DHT22;11573;51.334;3.244;2023-02-19T00:29:08;10.30;99.90
22813;DHT22;11573;51.334;3.244;2023-02-19T00:31:35;10.30;99.90
22813;DHT22;11573;51.334;3.244;2023-02-19T00:34:04;10.30;99.90
22813;DHT22;11573;51.334;3.244;2023-02-19T00:36:33;10.20;99.90
22813;DHT22;11573;51.334;3.244;2023-02-19T00:39:06;10.20;99.90
22813;DHT22;11573;51.334;3.244;2023-02-19T00:41:34;10.20;99.90
22813;DHT22;11573;51.334;3.244;2023-02-19T00:44:03;10.20;99.90
22813;DHT22;11573;51.334;3.244;2023-02-19T00:46:34;10.20;99.90
22813;DHT22;11573;51.334;3.244;2023-02-19T00:49:03;10.10;99.90
22813;DHT22;11573;51.334;3.244;2023-02-19T00:51:33;10.10;99.90
22813;DHT22;11573;51.334;3.244;2023-02-19T00:54:02;10.10;99.90
22813;DHT22;11573;51.334;3.244;2023-02-19T00:56:29;10.10;99.90
22813;DHT22;11573;51.334;3.244;2023-02-19T00:58:57;10.10;99.90
22813;DHT22;11573;51.334;3.244;2023-02-19T01:01:24;10.00;99.90
22813;DHT22;11573;51.334;3.244;2023-02-19T01:03:51;10.00;99.90
22813;DHT22;11573;51.334;3.244;2023-02-19T01:06:19;10.00;99.90
22813;DHT22;11573;51.334;3.244;2023-02-19T01:08:47;10.00;99.90
22813;DHT22;11573;51.334;3.244;2023-02-19T01:11:16;10.00;99.90
22813;DHT22;11573;51.334;3.244;2023-02-19T01:13:43;9.90;99.90
22813;DHT22;11573;51.334;3.244;2023-02-19T01:16:19;9.90;99.90
22813;DHT22;11573;51.334;3.244;2023-02-19T01:18:47;10.00;99.90
22813;DHT22;11573;51.334;3.244;2023-02-19T01:21:19;10.00;99.90
22813;DHT22;11573;51.334;3.244;2023-02-19T01:23:50;10.00;99.90
22813;DHT22;11573;51.334;3.244;2023-02-19T01:26:20;10.00;99.90
22813;DHT22;11573;51.334;3.244;2023-02-19T01:28:48;10.00;99.90
22813;DHT22;11573;51.334;3.244;2023-02-19T01:31:18;10.00;99.90
22813;DHT22;11573;51.334;3.244;2023-02-19T01:33:46;10.00;99.90
22813;DHT22;11573;51.334;3.244;2023-02-19T01:36:14;10.00;99.90
22813;DHT22;11573;51.334;3.244;2023-02-19T01:38:41;10.00;99.90
22813;DHT22;11573;51.334;3.244;2023-02-19T01:41:11;10.00;99.90
22813;DHT22;11573;51.334;3.244;2023-02-19T01:46:35;9.90;99.90
22813;DHT22;11573;51.334;3.244;2023-02-19T01:49:11;10.00;99.90
22813;DHT22;11573;51.334;3.244;2023-02-19T01:51:46;10.00;99.90
22813;DHT22;11573;51.334;3.244;2023-02-19T01:54:19;10.00;99.90
22813;DHT22;11573;51.334;3.244;2023-02-19T01:56:48;9.90;99.90
22813;DHT22;11573;51.334;3.244;2023-02-19T01:59:16;9.90;99.90
22813;DHT22;11573;51.334;3.244;2023-02-19T02:01:44;10.00;99.90
22813;DHT22;11573;51.334;3.244;2023-02-19T02:04:13;10.00;99.90
22813;DHT22;11573;51.334;3.244;2023-02-19T02:06:54;10.00;99.90
22813;DHT22;11573;51.334;3.244;2023-02-19T02:09:25;10.00;99.90
22813;DHT22;11573;51.334;3.244;2023-02-19T02:12:12;10.00;99.90
22813;DHT22;11573;51.334;3.244;2023-02-19T02:14:42;10.00;99.90
22813;DHT22;11573;51.334;3.244;2023-02-19T02:17:29;10.10;99.90
22813;DHT22;11573;51.334;3.244;2023-02-19T02:23:08;10.00;99.90
22813;DHT22;11573;51.334;3.244;2023-02-19T02:31:58;10.10;99.90
22813;DHT22;11573;51.334;3.244;2023-02-19T02:34:39;10.10;99.90
22813;DHT22;11573;51.334;3.244;2023-02-19T02:37:08;10.10;99.90
22813;DHT22;11573;51.334;3.244;2023-02-19T02:39:38;10.10;99.90
22813;DHT22;11573;51.334;3.244;2023-02-19T02:42:06;10.00;99.90
22813;DHT22;11573;51.334;3.244;2023-02-19T02:45:23;10.10;99.90
22813;DHT22;11573;51.334;3.244;2023-02-19T02:48:35;10.00;99.90
22813;DHT22;11573;51.334;3.244;2023-02-19T02:51:11;10.10;99.90
22813;DHT22;11573;51.334;3.244;2023-02-19T02:56:55;10.10;99.90
22813;DHT22;11573;51.334;3.244;2023-02-19T02:59:31;10.00;99.90
22813;DHT22;11573;51.334;3.244;2023-02-19T03:02:10;10.00;99.90
22813;DHT22;11573;51.334;3.244;2023-02-19T03:05:01;10.00;99.90
22813;DHT22;11573;51.334;3.244;2023-02-19T03:07:52;10.00;99.90
22813;DHT22;11573;51.334;3.244;2023-02-19T03:10:34;10.00;99.90
22813;DHT22;11573;51.334;3.244;2023-02-19T03:13:05;10.00;99.90
22813;DHT22;11573;51.334;3.244;2023-02-19T03:16:01;10.00;99.90
22813;DHT22;11573;51.334;3.244;2023-02-19T03:18:53;10.00;99.90
22813;DHT22;11573;51.334;3.244;2023-02-19T03:21:41;9.90;99.90
22813;DHT22;11573;51.334;3.244;2023-02-19T03:24:10;9.90;99.90
22813;DHT22;11573;51.334;3.244;2023-02-19T03:26:58;9.90;99.90
22813;DHT22;11573;51.334;3.244;2023-02-19T03:29:34;9.90;99.90
22813;DHT22;11573;51.334;3.244;2023-02-19T03:32:24;9.80;99.90
22813;DHT22;11573;51.334;3.244;2023-02-19T03:35:19;9.80;99.90
22813;DHT22;11573;51.334;3.244;2023-02-19T03:38:14;9.90;99.90
22813;DHT22;11573;51.334;3.244;2023-02-19T03:41:10;9.80;99.90
22813;DHT22;11573;51.334;3.244;2023-02-19T03:46:35;9.80;99.90
22813;DHT22;11573;51.334;3.244;2023-02-19T03:49:29;9.80;99.90
22813;DHT22;11573;51.334;3.244;2023-02-19T03:52:15;9.80;99.90
22813;DHT22;11573;51.334;3.244;2023-02-19T03:55:07;9.80;99.90
22813;DHT22;11573;51.334;3.244;2023-02-19T03:57:49;9.80;99.90
22813;DHT22;11573;51.334;3.244;2023-02-19T04:00:30;9.80;99.90
22813;DHT22;11573;51.334;3.244;2023-02-19T04:03:28;9.80;99.90
22813;DHT22;11573;51.334;3.244;2023-02-19T04:05:57;9.80;99.90
22813;DHT22;11573;51.334;3.244;2023-02-19T04:08:28;9.80;99.90
22813;DHT22;11573;51.334;3.244;2023-02-19T04:11:01;9.80;99.90
22813;DHT22;11573;51.334;3.244;2023-02-19T04:13:37;9.80;99.90
22813;DHT22;11573;51.334;3.244;2023-02-19T04:16:14;9.80;99.90
22813;DHT22;11573;51.334;3.244;2023-02-19T04:18:46;9.70;99.90
22813;DHT22;11573;51.334;3.244;2023-02-19T04:21:15;9.70;99.90
22813;DHT22;11573;51.334;3.244;2023-02-19T04:23:44;9.70;99.90
22813;DHT22;11573;51.334;3.244;2023-02-19T04:26:13;9.70;99.90
22813;DHT22;11573;51.334;3.244;2023-02-19T04:28:41;9.70;99.90
22813;DHT22;11573;51.334;3.244;2023-02-19T04:31:10;9.70;99.90
22813;DHT22;11573;51.334;3.244;2023-02-19T04:33:37;9.60;99.90
22813;DHT22;11573;51.334;3.244;2023-02-19T04:36:06;9.70;99.90
22813;DHT22;11573;51.334;3.244;2023-02-19T04:38:33;9.60;99.90
22813;DHT22;11573;51.334;3.244;2023-02-19T04:41:00;9.70;99.90
22813;DHT22;11573;51.334;3.244;2023-02-19T04:43:27;9.70;99.90
22813;DHT22;11573;51.334;3.244;2023-02-19T04:45:58;9.70;99.90
22813;DHT22;11573;51.334;3.244;2023-02-19T04:48:27;9.70;99.90
22813;DHT22;11573;51.334;3.244;2023-02-19T04:50:54;9.70;99.90
22813;DHT22;11573;51.334;3.244;2023-02-19T04:53:22;9.60;99.90
22813;DHT22;11573;51.334;3.244;2023-02-19T04:55:49;9.70;99.90
22813;DHT22;11573;51.334;3.244;2023-02-19T04:58:19;9.70;99.90
22813;DHT22;11573;51.334;3.244;2023-02-19T05:00:51;9.70;99.90
22813;DHT22;11573;51.334;3.244;2023-02-19T05:03:18;9.70;99.90
22813;DHT22;11573;51.334;3.244;2023-02-19T05:05:45;9.70;99.90
22813;DHT22;11573;51.334;3.244;2023-02-19T05:08:12;9.70;99.90
22813;DHT22;11573;51.334;3.244;2023-02-19T05:10:40;9.70;99.90
22813;DHT22;11573;51.334;3.244;2023-02-19T05:13:07;9.70;99.90
22813;DHT22;11573;51.334;3.244;2023-02-19T05:15:34;9.70;99.90
22813;DHT22;11573;51.334;3.244;2023-02-19T05:18:02;9.70;99.90
22813;DHT22;11573;51.334;3.244;2023-02-19T05:20:29;9.70;99.90
22813;DHT22;11573;51.334;3.244;2023-02-19T05:22:56;9.70;99.90
22813;DHT22;11573;51.334;3.244;2023-02-19T05:25:23;9.70;99.90
22813;DHT22;11573;51.334;3.244;2023-02-19T05:27:50;9.70;99.90
22813;DHT22;11573;51.334;3.244;2023-02-19T05:30:37;9.70;99.90
22813;DHT22;11573;51.334;3.244;2023-02-19T05:33:04;9.70;99.90
22813;DHT22;11573;51.334;3.244;2023-02-19T05:35:31;9.70;99.90
22813;DHT22;11573;51.334;3.244;2023-02-19T05:37:58;9.60;99.90
22813;DHT22;11573;51.334;3.244;2023-02-19T05:40:25;9.60;99.90
22813;DHT22;11573;51.334;3.244;2023-02-19T05:42:52;9.60;99.90
22813;DHT22;11573;51.334;3.244;2023-02-19T05:45:19;9.60;99.90
22813;DHT22;11573;51.334;3.244;2023-02-19T05:47:46;9.60;99.90
22813;DHT22;11573;51.334;3.244;2023-02-19T05:50:14;9.60;99.90
22813;DHT22;11573;51.334;3.244;2023-02-19T05:52:40;9.60;99.90
22813;DHT22;11573;51.334;3.244;2023-02-19T05:55:10;9.60;99.90
22813;DHT22;11573;51.334;3.244;2023-02-19T05:57:41;9.60;99.90
22813;DHT22;11573;51.334;3.244;2023-02-19T06:00:16;9.60;99.90
22813;DHT22;11573;51.334;3.244;2023-02-19T06:02:43;9.60;99.90
22813;DHT22;11573;51.334;3.244;2023-02-19T06:05:11;9.70;99.90
22813;DHT22;11573;51.334;3.244;2023-02-19T06:07:38;9.70;99.90
22813;DHT22;11573;51.334;3.244;2023-02-19T06:10:06;9.60;99.90
22813;DHT22;11573;51.334;3.244;2023-02-19T06:12:33;9.60;99.90
22813;DHT22;11573;51.334;3.244;2023-02-19T06:15:00;9.60;99.90
22813;DHT22;11573;51.334;3.244;2023-02-19T06:17:28;9.70;99.90
22813;DHT22;11573;51.334;3.244;2023-02-19T06:19:55;9.70;99.90
22813;DHT22;11573;51.334;3.244;2023-02-19T06:22:22;9.60;99.90
22813;DHT22;11573;51.334;3.244;2023-02-19T06:24:49;9.70;99.90
22813;DHT22;11573;51.334;3.244;2023-02-19T06:27:16;9.60;99.90
22813;DHT22;11573;51.334;3.244;2023-02-19T06:29:43;9.70;99.90
22813;DHT22;11573;51.334;3.244;2023-02-19T06:32:11;9.70;99.90
22813;DHT22;11573;51.334;3.244;2023-02-19T06:34:38;9.60;99.90
22813;DHT22;11573;51.334;3.244;2023-02-19T06:37:05;9.60;99.90
22813;DHT22;11573;51.334;3.244;2023-02-19T06:39:32;9.60;99.90
22813;DHT22;11573;51.334;3.244;2023-02-19T06:41:59;9.60;99.90
22813;DHT22;11573;51.334;3.244;2023-02-19T06:44:26;9.50;99.90
22813;DHT22;11573;51.334;3.244;2023-02-19T06:46:54;9.50;99.90
22813;DHT22;11573;51.334;3.244;2023-02-19T06:49:21;9.50;99.90
22813;DHT22;11573;51.334;3.244;2023-02-19T06:51:48;9.50;99.90
22813;DHT22;11573;51.334;3.244;2023-02-19T06:54:15;9.50;99.90
22813;DHT22;11573;51.334;3.244;2023-02-19T06:56:43;9.50;99.90
22813;DHT22;11573;51.334;3.244;2023-02-19T06:59:14;9.50;99.90
22813;DHT22;11573;51.334;3.244;2023-02-19T07:01:45;9.50;99.90
22813;DHT22;11573;51.334;3.244;2023-02-19T07:04:12;9.60;99.90
22813;DHT22;11573;51.334;3.244;2023-02-19T07:06:39;9.60;99.90
22813;DHT22;11573;51.334;3.244;2023-02-19T07:09:08;9.50;99.90
22813;DHT22;11573;51.334;3.244;2023-02-19T07:11:37;9.50;99.90
22813;DHT22;11573;51.334;3.244;2023-02-19T07:14:06;9.50;99.90
22813;DHT22;11573;51.334;3.244;2023-02-19T07:16:34;9.50;99.90
22813;DHT22;11573;51.334;3.244;2023-02-19T07:19:02;9.50;99.90
22813;DHT22;11573;51.334;3.244;2023-02-19T07:21:29;9.50;99.90
22813;DHT22;11573;51.334;3.244;2023-02-19T07:23:57;9.60;99.90
22813;DHT22;11573;51.334;3.244;2023-02-19T07:26:24;9.60;99.90
22813;DHT22;11573;51.334;3.244;2023-02-19T07:28:51;9.60;99.90
22813;DHT22;11573;51.334;3.244;2023-02-19T07:31:21;9.60;99.90
22813;DHT22;11573;51.334;3.244;2023-02-19T07:33:49;9.60;99.90
22813;DHT22;11573;51.334;3.244;2023-02-19T07:36:18;9.60;99.90
22813;DHT22;11573;51.334;3.244;2023-02-19T07:38:45;9.60;99.90
22813;DHT22;11573;51.334;3.244;2023-02-19T07:41:12;9.60;99.90
22813;DHT22;11573;51.334;3.244;2023-02-19T07:43:40;9.60;99.90
22813;DHT22;11573;51.334;3.244;2023-02-19T07:46:11;9.60;99.90
22813;DHT22;11573;51.334;3.244;2023-02-19T07:48:40;9.60;99.90
22813;DHT22;11573;51.334;3.244;2023-02-19T07:51:12;9.70;99.90
22813;DHT22;11573;51.334;3.244;2023-02-19T07:53:39;9.70;99.90
22813;DHT22;11573;51.334;3.244;2023-02-19T07:56:09;9.70;99.90
22813;DHT22;11573;51.334;3.244;2023-02-19T07:58:37;9.70;99.90
22813;DHT22;11573;51.334;3.244;2023-02-19T08:01:08;9.70;99.90
22813;DHT22;11573;51.334;3.244;2023-02-19T08:03:37;9.70;99.90
22813;DHT22;11573;51.334;3.244;2023-02-19T08:06:04;9.80;99.90
22813;DHT22;11573;51.334;3.244;2023-02-19T08:08:32;9.80;99.90
22813;DHT22;11573;51.334;3.244;2023-02-19T08:11:00;9.80;99.90
22813;DHT22;11573;51.334;3.244;2023-02-19T08:13:48;10.00;99.90
22813;DHT22;11573;51.334;3.244;2023-02-19T08:16:17;9.90;99.90
22813;DHT22;11573;51.334;3.244;2023-02-19T08:18:59;10.00;99.90
22813;DHT22;11573;51.334;3.244;2023-02-19T08:21:26;9.90;99.90
22813;DHT22;11573;51.334;3.244;2023-02-19T08:23:53;9.90;99.90
22813;DHT22;11573;51.334;3.244;2023-02-19T08:26:20;10.00;99.90
22813;DHT22;11573;51.334;3.244;2023-02-19T08:28:47;10.00;99.90
22813;DHT22;11573;51.334;3.244;2023-02-19T08:31:15;10.00;99.90
22813;DHT22;11573;51.334;3.244;2023-02-19T08:33:42;10.00;99.90
22813;DHT22;11573;51.334;3.244;2023-02-19T08:36:10;10.10;99.90
22813;DHT22;11573;51.334;3.244;2023-02-19T08:38:37;10.20;99.90
22813;DHT22;11573;51.334;3.244;2023-02-19T08:41:10;10.20;99.90
22813;DHT22;11573;51.334;3.244;2023-02-19T08:43:39;10.20;99.90
22813;DHT22;11573;51.334;3.244;2023-02-19T08:46:08;10.20;99.90
22813;DHT22;11573;51.334;3.244;2023-02-19T08:48:37;10.20;99.90
22813;DHT22;11573;51.334;3.244;2023-02-19T08:51:07;10.30;99.90
22813;DHT22;11573;51.334;3.244;2023-02-19T08:53:36;10.40;99.90
22813;DHT22;11573;51.334;3.244;2023-02-19T08:56:08;10.30;99.90
22813;DHT22;11573;51.334;3.244;2023-02-19T08:58:36;10.20;99.90
22813;DHT22;11573;51.334;3.244;2023-02-19T09:01:12;10.10;99.90
22813;DHT22;11573;51.334;3.244;2023-02-19T09:03:40;10.10;99.90
22813;DHT22;11573;51.334;3.244;2023-02-19T09:06:12;10.20;99.90
22813;DHT22;11573;51.334;3.244;2023-02-19T09:08:39;10.10;99.90
22813;DHT22;11573;51.334;3.244;2023-02-19T09:11:06;10.10;99.90
22813;DHT22;11573;51.334;3.244;2023-02-19T09:13:33;10.10;99.90
22813;DHT22;11573;51.334;3.244;2023-02-19T09:16:02;10.10;99.90
22813;DHT22;11573;51.334;3.244;2023-02-19T09:18:29;10.10;99.90
22813;DHT22;11573;51.334;3.244;2023-02-19T09:21:00;10.20;99.90
22813;DHT22;11573;51.334;3.244;2023-02-19T09:23:28;10.30;99.90
22813;DHT22;11573;51.334;3.244;2023-02-19T09:25:59;10.50;99.90
22813;DHT22;11573;51.334;3.244;2023-02-19T09:28:26;10.60;99.90
22813;DHT22;11573;51.334;3.244;2023-02-19T09:30:54;10.90;99.90
22813;DHT22;11573;51.334;3.244;2023-02-19T09:33:21;10.90;99.90
22813;DHT22;11573;51.334;3.244;2023-02-19T09:35:48;11.00;99.90
22813;DHT22;11573;51.334;3.244;2023-02-19T09:38:15;11.00;99.90
22813;DHT22;11573;51.334;3.244;2023-02-19T09:40:42;11.10;99.90
22813;DHT22;11573;51.334;3.244;2023-02-19T09:43:15;10.90;99.90
22813;DHT22;11573;51.334;3.244;2023-02-19T09:45:43;10.80;99.90
22813;DHT22;11573;51.334;3.244;2023-02-19T09:48:11;10.70;99.90
22813;DHT22;11573;51.334;3.244;2023-02-19T09:50:42;10.60;99.90
22813;DHT22;11573;51.334;3.244;2023-02-19T09:53:17;10.70;99.90
22813;DHT22;11573;51.334;3.244;2023-02-19T09:55:45;10.80;99.90
22813;DHT22;11573;51.334;3.244;2023-02-19T09:58:30;10.70;99.90
22813;DHT22;11573;51.334;3.244;2023-02-19T10:01:00;10.80;99.90
22813;DHT22;11573;51.334;3.244;2023-02-19T10:03:30;10.80;99.90
22813;DHT22;11573;51.334;3.244;2023-02-19T10:06:04;10.80;99.90
22813;DHT22;11573;51.334;3.244;2023-02-19T10:08:34;10.80;99.90
22813;DHT22;11573;51.334;3.244;2023-02-19T10:11:04;10.80;99.90
22813;DHT22;11573;51.334;3.244;2023-02-19T10:13:35;10.80;99.90
22813;DHT22;11573;51.334;3.244;2023-02-19T10:16:05;10.70;99.90
22813;DHT22;11573;51.334;3.244;2023-02-19T10:18:38;10.90;99.90
22813;DHT22;11573;51.334;3.244;2023-02-19T10:21:17;10.90;99.90
22813;DHT22;11573;51.334;3.244;2023-02-19T10:23:57;11.00;99.90
22813;DHT22;11573;51.334;3.244;2023-02-19T10:26:26;11.10;99.90
22813;DHT22;11573;51.334;3.244;2023-02-19T10:28:54;11.00;99.90
22813;DHT22;11573;51.334;3.244;2023-02-19T10:31:24;11.00;99.90
22813;DHT22;11573;51.334;3.244;2023-02-19T10:33:53;11.20;99.90
22813;DHT22;11573;51.334;3.244;2023-02-19T10:36:27;11.10;99.90
22813;DHT22;11573;51.334;3.244;2023-02-19T10:38:59;11.30;99.90
22813;DHT22;11573;51.334;3.244;2023-02-19T10:41:28;11.40;99.90
22813;DHT22;11573;51.334;3.244;2023-02-19T10:44:17;11.40;99.90
22813;DHT22;11573;51.334;3.244;2023-02-19T10:46:49;11.30;99.90
22813;DHT22;11573;51.334;3.244;2023-02-19T10:51:55;11.00;99.90
22813;DHT22;11573;51.334;3.244;2023-02-19T10:54:33;11.20;99.90
22813;DHT22;11573;51.334;3.244;2023-02-19T10:59:49;11.00;99.90
22813;DHT22;11573;51.334;3.244;2023-02-19T11:02:18;11.00;99.90
22813;DHT22;11573;51.334;3.244;2023-02-19T11:07:35;10.90;99.90
22813;DHT22;11573;51.334;3.244;2023-02-19T11:10:04;11.10;99.90
22813;DHT22;11573;51.334;3.244;2023-02-19T11:12:33;11.00;99.90
22813;DHT22;11573;51.334;3.244;2023-02-19T11:15:38;11.00;99.90
22813;DHT22;11573;51.334;3.244;2023-02-19T11:21:01;11.00;99.90
22813;DHT22;11573;51.334;3.244;2023-02-19T11:23:33;11.20;99.90
22813;DHT22;11573;51.334;3.244;2023-02-19T11:26:17;11.40;99.90
22813;DHT22;11573;51.334;3.244;2023-02-19T11:28:54;11.60;99.90
22813;DHT22;11573;51.334;3.244;2023-02-19T11:31:31;11.40;99.90
22813;DHT22;11573;51.334;3.244;2023-02-19T11:36:35;11.10;99.90
22813;DHT22;11573;51.334;3.244;2023-02-19T11:41:50;11.20;99.90
22813;DHT22;11573;51.334;3.244;2023-02-19T11:52:45;11.30;99.90
22813;DHT22;11573;51.334;3.244;2023-02-19T11:55:36;11.30;99.90
22813;DHT22;11573;51.334;3.244;2023-02-19T12:04:44;11.40;99.90
22813;DHT22;11573;51.334;3.244;2023-02-19T12:10:10;10.70;99.90
22813;DHT22;11573;51.334;3.244;2023-02-19T12:24:21;10.40;99.90
22813;DHT22;11573;51.334;3.244;2023-02-19T12:43:19;10.40;99.90
22813;DHT22;11573;51.334;3.244;2023-02-19T12:51:42;10.60;99.90
22813;DHT22;11573;51.334;3.244;2023-02-19T12:57:22;10.60;99.90
22813;DHT22;11573;51.334;3.244;2023-02-19T13:08:05;10.40;99.90
22813;DHT22;11573;51.334;3.244;2023-02-19T13:10:54;10.50;99.90
22813;DHT22;11573;51.334;3.244;2023-02-19T13:13:30;10.30;99.90
22813;DHT22;11573;51.334;3.244;2023-02-19T13:16:05;10.40;99.90
22813;DHT22;11573;51.334;3.244;2023-02-19T13:18:55;10.40;99.90
22813;DHT22;11573;51.334;3.244;2023-02-19T13:21:27;10.60;99.90
22813;DHT22;11573;51.334;3.244;2023-02-19T13:24:20;10.80;99.90
22813;DHT22;11573;51.334;3.244;2023-02-19T13:29:53;10.90;99.90
22813;DHT22;11573;51.334;3.244;2023-02-19T13:32:51;11.00;99.90
22813;DHT22;11573;51.334;3.244;2023-02-19T13:38:14;10.60;99.90
22813;DHT22;11573;51.334;3.244;2023-02-19T13:40:52;10.50;99.90
22813;DHT22;11573;51.334;3.244;2023-02-19T13:43:34;10.40;99.90
22813;DHT22;11573;51.334;3.244;2023-02-19T13:46:08;10.20;99.90
22813;DHT22;11573;51.334;3.244;2023-02-19T13:48:38;10.30;99.90
22813;DHT22;11573;51.334;3.244;2023-02-19T14:04:41;10.20;99.90
22813;DHT22;11573;51.334;3.244;2023-02-19T14:17:38;10.40;99.90
22813;DHT22;11573;51.334;3.244;2023-02-19T14:33:37;10.40;99.90
22813;DHT22;11573;51.334;3.244;2023-02-19T14:36:40;10.50;99.90
22813;DHT22;11573;51.334;3.244;2023-02-19T14:39:32;10.60;99.90
22813;DHT22;11573;51.334;3.244;2023-02-19T14:42:11;10.70;99.90
22813;DHT22;11573;51.334;3.244;2023-02-19T14:44:48;10.40;99.90
22813;DHT22;11573;51.334;3.244;2023-02-19T14:47:22;10.40;99.90
22813;DHT22;11573;51.334;3.244;2023-02-19T14:52:39;10.30;99.90
22813;DHT22;11573;51.334;3.244;2023-02-19T14:55:22;10.20;99.90
22813;DHT22;11573;51.334;3.244;2023-02-19T14:57:56;10.20;99.90
22813;DHT22;11573;51.334;3.244;2023-02-19T15:00:29;10.20;99.90
22813;DHT22;11573;51.334;3.244;2023-02-19T15:02:59;10.20;99.90
22813;DHT22;11573;51.334;3.244;2023-02-19T15:05:34;10.20;99.90
22813;DHT22;11573;51.334;3.244;2023-02-19T15:08:07;10.20;99.90
22813;DHT22;11573;51.334;3.244;2023-02-19T15:10:36;10.40;99.90
22813;DHT22;11573;51.334;3.244;2023-02-19T15:13:08;10.20;99.90
22813;DHT22;11573;51.334;3.244;2023-02-19T15:15:42;10.10;99.90
22813;DHT22;11573;51.334;3.244;2023-02-19T15:18:19;10.20;99.90
22813;DHT22;11573;51.334;3.244;2023-02-19T15:20:47;10.00;99.90
22813;DHT22;11573;51.334;3.244;2023-02-19T15:23:21;10.00;99.90
22813;DHT22;11573;51.334;3.244;2023-02-19T15:25:49;9.90;99.90
22813;DHT22;11573;51.334;3.244;2023-02-19T15:28:29;9.90;99.90
22813;DHT22;11573;51.334;3.244;2023-02-19T15:33:25;9.90;99.90
22813;DHT22;11573;51.334;3.244;2023-02-19T15:35:59;10.00;99.90
22813;DHT22;11573;51.334;3.244;2023-02-19T15:38:27;9.80;99.90
22813;DHT22;11573;51.334;3.244;2023-02-19T15:40:55;9.80;99.90
22813;DHT22;11573;51.334;3.244;2023-02-19T15:43:31;9.80;99.90
22813;DHT22;11573;51.334;3.244;2023-02-19T15:46:16;9.80;99.90
22813;DHT22;11573;51.334;3.244;2023-02-19T15:48:55;9.80;99.90
22813;DHT22;11573;51.334;3.244;2023-02-19T15:51:30;9.80;99.90
22813;DHT22;11573;51.334;3.244;2023-02-19T15:54:07;9.90;99.90
22813;DHT22;11573;51.334;3.244;2023-02-19T15:56:39;9.90;99.90
22813;DHT22;11573;51.334;3.244;2023-02-19T15:59:38;10.00;99.90
22813;DHT22;11573;51.334;3.244;2023-02-19T16:02:11;10.10;99.90
22813;DHT22;11573;51.334;3.244;2023-02-19T16:04:40;10.10;99.90
22813;DHT22;11573;51.334;3.244;2023-02-19T16:07:23;9.90;99.90
22813;DHT22;11573;51.334;3.244;2023-02-19T16:10:20;9.70;99.90
22813;DHT22;11573;51.334;3.244;2023-02-19T16:12:59;9.60;99.90
22813;DHT22;11573;51.334;3.244;2023-02-19T16:15:28;9.40;99.90
22813;DHT22;11573;51.334;3.244;2023-02-19T16:17:56;9.50;99.90
22813;DHT22;11573;51.334;3.244;2023-02-19T16:20:30;9.50;99.90
22813;DHT22;11573;51.334;3.244;2023-02-19T16:23:09;9.60;99.90
22813;DHT22;11573;51.334;3.244;2023-02-19T16:25:42;9.70;99.90
22813;DHT22;11573;51.334;3.244;2023-02-19T16:33:40;9.50;99.90
22813;DHT22;11573;51.334;3.244;2023-02-19T16:36:35;9.40;99.90
22813;DHT22;11573;51.334;3.244;2023-02-19T16:46:56;9.20;99.90
22813;DHT22;11573;51.334;3.244;2023-02-19T16:49:24;9.00;99.90
22813;DHT22;11573;51.334;3.244;2023-02-19T16:51:51;9.00;99.90
22813;DHT22;11573;51.334;3.244;2023-02-19T16:54:19;8.90;99.90
22813;DHT22;11573;51.334;3.244;2023-02-19T16:56:48;8.80;99.90
22813;DHT22;11573;51.334;3.244;2023-02-19T16:59:16;8.80;99.90
22813;DHT22;11573;51.334;3.244;2023-02-19T17:01:43;8.70;99.90
22813;DHT22;11573;51.334;3.244;2023-02-19T17:04:11;8.60;99.90
22813;DHT22;11573;51.334;3.244;2023-02-19T17:06:40;8.50;99.90
22813;DHT22;11573;51.334;3.244;2023-02-19T17:09:08;8.50;99.90
22813;DHT22;11573;51.334;3.244;2023-02-19T17:11:36;8.40;99.90
22813;DHT22;11573;51.334;3.244;2023-02-19T17:14:02;8.30;99.90
22813;DHT22;11573;51.334;3.244;2023-02-19T17:16:32;8.20;99.90
22813;DHT22;11573;51.334;3.244;2023-02-19T17:19:14;8.20;99.90
22813;DHT22;11573;51.334;3.244;2023-02-19T17:21:43;8.20;99.90
22813;DHT22;11573;51.334;3.244;2023-02-19T17:24:11;8.20;99.90
22813;DHT22;11573;51.334;3.244;2023-02-19T17:26:38;8.10;99.90
22813;DHT22;11573;51.334;3.244;2023-02-19T17:29:06;8.00;99.90
22813;DHT22;11573;51.334;3.244;2023-02-19T17:31:35;7.90;99.90
22813;DHT22;11573;51.334;3.244;2023-02-19T17:34:02;7.80;99.90
22813;DHT22;11573;51.334;3.244;2023-02-19T17:36:30;7.70;99.90
22813;DHT22;11573;51.334;3.244;2023-02-19T17:39:00;7.70;99.90
22813;DHT22;11573;51.334;3.244;2023-02-19T17:41:28;7.60;99.90
22813;DHT22;11573;51.334;3.244;2023-02-19T17:43:58;7.50;99.90
22813;DHT22;11573;51.334;3.244;2023-02-19T17:46:26;7.50;99.90
22813;DHT22;11573;51.334;3.244;2023-02-19T17:48:53;7.40;99.90
22813;DHT22;11573;51.334;3.244;2023-02-19T17:51:21;7.30;99.90
22813;DHT22;11573;51.334;3.244;2023-02-19T17:53:48;7.40;99.90
22813;DHT22;11573;51.334;3.244;2023-02-19T17:56:20;7.40;99.90
22813;DHT22;11573;51.334;3.244;2023-02-19T17:58:47;7.40;99.90
22813;DHT22;11573;51.334;3.244;2023-02-19T18:01:15;7.50;99.90
22813;DHT22;11573;51.334;3.244;2023-02-19T18:03:42;7.50;99.90
22813;DHT22;11573;51.334;3.244;2023-02-19T18:06:10;7.60;99.90
22813;DHT22;11573;51.334;3.244;2023-02-19T18:08:37;7.60;99.90
22813;DHT22;11573;51.334;3.244;2023-02-19T18:11:08;7.60;99.90
22813;DHT22;11573;51.334;3.244;2023-02-19T18:13:38;7.60;99.90
22813;DHT22;11573;51.334;3.244;2023-02-19T18:16:05;7.50;99.90
22813;DHT22;11573;51.334;3.244;2023-02-19T18:18:32;7.40;99.90
22813;DHT22;11573;51.334;3.244;2023-02-19T18:20:59;7.30;99.90
22813;DHT22;11573;51.334;3.244;2023-02-19T18:23:27;7.30;99.90
22813;DHT22;11573;51.334;3.244;2023-02-19T18:25:54;7.20;99.90
22813;DHT22;11573;51.334;3.244;2023-02-19T18:28:20;7.20;99.90
22813;DHT22;11573;51.334;3.244;2023-02-19T18:30:47;7.10;99.90
22813;DHT22;11573;51.334;3.244;2023-02-19T18:33:15;7.20;99.90
22813;DHT22;11573;51.334;3.244;2023-02-19T18:35:42;7.30;99.90
22813;DHT22;11573;51.334;3.244;2023-02-19T18:38:09;7.30;99.90
22813;DHT22;11573;51.334;3.244;2023-02-19T18:40:36;7.40;99.90
22813;DHT22;11573;51.334;3.244;2023-02-19T18:43:04;7.40;99.90
22813;DHT22;11573;51.334;3.244;2023-02-19T18:45:31;7.40;99.90
22813;DHT22;11573;51.334;3.244;2023-02-19T18:48:01;7.30;99.90